• METAR

    LHBP Budapest Liszt Ferenc repülőtér METAR

    LHBP 180230Z 07008KT CAVOK 04/M03 Q1029 NOSIG

    QNH légnyomás:1029hpa
    Hőmérséklet/temperature: 4°C
    Harmatpont/Dew Point Temp: -3°C

    LHDC Debreceni repülőtér METAR

    LHDC 171645Z 05005KT CAVOK 06/M03 Q1030 NOSIG

    QNH légnyomás:1030hpa
    Hőmérskélet/temperature: 6°C
    Harmatpont/Dew Point Temp: -3°C

    LHPR Győr-pér repülőtér METAR

    LHPR 180215Z AUTO 22003KT 8000 NSC 01/M01 Q1029 RMK BLU

    QNH légnyomás:1029hpa
    Hőmérskélet/temperature: 1°C
    Harmatpont/Dew Point Temp: -1°C

    lhsm Sármellék repülőtér METAR

    LHSM 171545Z 33006KT CAVOK 02/M02 Q1031

    QNH légnyomás:1031hpa
    Hőmérskélet/temperature: 2°C
    Harmatpont/Dew Point Temp: -2°C

    lhpp Pécs-pogány repülőtér METAR

    LHPP 171645Z 04008KT CAVOK 05/M03 Q1030

    QNH légnyomás:1030hpa
    Hőmérskélet/temperature: 5°C
    Harmatpont/Dew Point Temp: -3°C

    LHKE Kecskemét repülőtér METAR

    LHKE 180215Z 30002KT CAVOK 02/M03 Q1029 NOSIG RMK BLU

    QNH légnyomás:1029hpa
    Hőmérskélet/temperature: 2°C
    Harmatpont/Dew Point Temp: -3°C

    LHSN Szolnok repülőtér METAR

    LHSN 180215Z 07006KT 9999 SCT070 OVC083 03/M03 Q1029 NOSIG RMK BLU

    QNH légnyomás:1029hpa
    Hőmérskélet/temperature: 3°C
    Harmatpont/Dew Point Temp: -3°C

    LHUD szeged repülőtér METAR

    LHUD 180145Z 00000KT CAVOK 02/M02 Q1030

    QNH légnyomás:1030hpa
    Hőmérskélet/temperature: 2°C
    Harmatpont/Dew Point Temp: -2°C

  • TÉRKÉPEK

    Felhőkép

    Széltérkép

    Hőtérkép

    radarkép

    map

    map

  • Műholdképek

    Magyarország műholdkép

    Europa műholdkép

    Europa szinoptikus térkép

  • ELTE ELŐREJELZÉS (2 NAP LHBP)

    2 napos légnyomás előrejelzés Budapest LHBP

    2 napos szél előrejelzés Budapest LHBP

    2 napos termik trigger előrejelzés Budapest LHBP

    2 napos felhőzet előrejelzés Budapest LHBP

    2 napos thermal index profile előrejelzés Budapest LHBP

    2 napos átlag emelés előrejelzés Budapest LHBP

    2 napos felhő alap előrejelzés Budapest LHBP

    2 napos hőmérséklet advekció előrejelzés Budapest LHBP

  • VILLÁMRADAR

  • ELŐREJELZÉS

  • WINDFINDER ELŐREJELZÉS

  • RIASZTÁS - VÉSZJELZÉS

Repülésmeteorológia, aktuális időjárási helyzet és előrejelzés

Repülésmeteorológia, várható időjárás jelentések, előrejelzések és riasztások. METAR, TAF adatok, aktuális időjárás helyzetek és térképek.

A meteorológia kialakulásában és fejlődésében kiemelt szerep jutott a repülésnek, illetve a repülés technikai fejlődésének. A repülésmeteorológia elsődlegesen a repülés biztonságát, másodlagosan a repülés gazdaságosságát hivatott szolgálni. Eleinte a katonai repülőgépeknek, később a polgári repülésnek, ma már a sportrepülő pilótáknak, és a mezőgazdasági pilótáknak is egyaránt szükségük van a naprakész meteorológiai információkra.

Repülésmeteorológia oldalunkon összegyűjtöttük a legnépszerűbb és legjobb időjárás oldalak hivatkozásait, hogy repülés előtt vagy akár közben minden fontos forrást egyszerűen és gyorsan megtalálj. Magyarország várható időjárása, légállapoti diagramok, termik előrejelzés, METAR adatok, vészjelzések és figyelmeztetések. A képernyő szélén közvetlenül pedig pozíciód aktuális időjárási paramétereit is megtalálod.

JOGI NYILATKOZAT

Az oldal használatával a látogató elfogadja az alábbi felhasználási feltételeket:

Az oldalon feltüntetett repülésmeteorológia információkat mindenki csak saját felelősségre használhatja. A feltüntetett külső forrásokból származó információk pontosságáért és tartalmáért, valamint az esetlegesen ebből adódó bármilyen káresemény kapcsán a FLYTIME.HU nem vállal felelősséget!